Time;durP1;ratioP1;P1;durP2;ratioP2;P2;SDS_P1;SDS_P2;PMS_P1;PMS_P2;Temp;Humidity;BMP_temperature;BMP_pressure;BME280_temperature;BME280_humidity;BME280_pressure;Samples;Min_cycle;Max_cycle;Signal;HPM_P1;HPM_P2
2021/01/23 00:02:14;;;;;;;2.10;0.90;;;4.20;99.90;;;;;;5013726;28;20239;-78
2021/01/23 00:04:42;;;;;;;4.25;0.90;;;4.10;99.90;;;;;;5013584;28;20248;-78
2021/01/23 00:07:09;;;;;;;2.53;1.00;;;4.40;99.90;;;;;;5014299;28;20208;-78
2021/01/23 00:09:35;;;;;;;2.70;1.25;;;4.20;99.90;;;;;;5012039;28;20254;-78
2021/01/23 00:12:02;;;;;;;2.70;1.50;;;4.10;99.90;;;;;;5013674;28;20219;-77
2021/01/23 00:14:29;;;;;;;3.15;1.30;;;4.10;99.90;;;;;;5007515;28;20204;-78
2021/01/23 00:16:55;;;;;;;2.95;1.10;;;4.10;99.90;;;;;;5011164;28;20257;-78
2021/01/23 00:19:23;;;;;;;3.58;1.50;;;4.20;99.90;;;;;;5012309;28;20546;-78
2021/01/23 00:21:50;;;;;;;3.10;1.50;;;4.20;99.90;;;;;;5011493;28;20211;-78
2021/01/23 00:24:17;;;;;;;3.42;1.30;;;4.10;99.90;;;;;;5013876;28;20213;-78
2021/01/23 00:26:44;;;;;;;2.70;1.10;;;4.10;99.90;;;;;;4998372;28;20216;-78
2021/01/23 00:29:12;;;;;;;2.90;1.50;;;4.20;99.90;;;;;;5005753;28;20280;-78
2021/01/23 00:31:38;;;;;;;2.83;1.35;;;4.10;99.90;;;;;;4998231;28;20196;-78
2021/01/23 00:34:05;;;;;;;3.40;1.80;;;4.20;99.90;;;;;;5015940;28;20298;-78
2021/01/23 00:36:31;;;;;;;3.13;1.50;;;4.20;99.90;;;;;;5015786;28;20222;-78
2021/01/23 00:38:59;;;;;;;3.75;2.10;;;4.00;99.90;;;;;;5012754;28;20664;-78
2021/01/23 00:41:26;;;;;;;3.28;1.98;;;4.40;99.90;;;;;;5015162;28;20215;-78
2021/01/23 00:43:53;;;;;;;2.83;1.60;;;4.30;99.90;;;;;;5015367;28;20204;-78
2021/01/23 00:46:21;;;;;;;2.58;1.17;;;4.20;99.90;;;;;;5010847;28;20200;-78
2021/01/23 00:48:48;;;;;;;3.95;2.30;;;4.20;99.90;;;;;;5009615;28;20235;-78
2021/01/23 00:51:14;;;;;;;3.45;2.10;;;4.50;99.90;;;;;;5013226;28;20660;-78
2021/01/23 00:53:41;;;;;;;4.45;2.13;;;4.40;99.90;;;;;;5013676;28;20220;-78
2021/01/23 00:56:08;;;;;;;3.85;2.00;;;4.30;99.90;;;;;;5016156;28;20223;-78
2021/01/23 00:58:35;;;;;;;4.32;2.50;;;4.30;99.90;;;;;;5016474;28;20286;-78
2021/01/23 01:01:02;;;;;;;4.43;2.42;;;4.30;99.90;;;;;;5016642;28;20219;-78
2021/01/23 01:03:28;;;;;;;3.25;1.90;;;4.30;99.90;;;;;;5004902;28;20222;-78
2021/01/23 01:05:55;;;;;;;3.97;1.95;;;4.40;99.90;;;;;;5020388;28;20218;-78
2021/01/23 01:08:22;;;;;;;3.70;2.70;;;4.20;99.90;;;;;;5021897;28;20231;-78
2021/01/23 01:10:48;;;;;;;3.80;1.70;;;4.00;99.90;;;;;;5016107;28;20683;-79
2021/01/23 01:13:18;;;;;;;3.30;2.08;;;4.20;99.90;;;;;;5015890;28;20208;-78
2021/01/23 01:15:45;;;;;;;5.72;3.05;;;3.80;99.90;;;;;;5015812;28;20203;-78
2021/01/23 01:18:12;;;;;;;5.03;3.60;;;4.00;99.90;;;;;;5016575;28;20235;-78
2021/01/23 01:20:38;;;;;;;6.47;4.13;;;4.00;99.90;;;;;;5016585;28;20278;-79
2021/01/23 01:23:05;;;;;;;5.88;4.03;;;4.00;99.90;;;;;;5015768;28;20682;-78
2021/01/23 01:25:31;;;;;;;6.22;4.00;;;4.10;99.90;;;;;;5002795;28;20228;-79
2021/01/23 01:27:58;;;;;;;6.03;3.55;;;4.20;99.90;;;;;;5011084;28;20736;-79
2021/01/23 01:30:25;;;;;;;5.50;3.97;;;4.20;99.90;;;;;;5015407;28;20230;-79
2021/01/23 01:32:52;;;;;;;7.03;4.40;;;4.10;99.90;;;;;;5001457;28;20207;-78
2021/01/23 01:35:18;;;;;;;3.92;2.45;;;4.20;99.90;;;;;;5007538;28;20233;-78
2021/01/23 01:37:45;;;;;;;7.43;4.63;;;4.00;99.90;;;;;;5014839;28;20317;-78
2021/01/23 01:40:13;;;;;;;8.15;5.30;;;3.90;99.90;;;;;;5007994;28;20250;-79
2021/01/23 01:42:40;;;;;;;4.28;3.00;;;3.90;99.90;;;;;;5000445;28;20200;-79
2021/01/23 01:45:07;;;;;;;6.00;4.30;;;3.80;99.90;;;;;;5015959;28;20262;-79
2021/01/23 01:47:35;;;;;;;6.00;4.25;;;4.00;99.90;;;;;;5014379;28;20267;-79
2021/01/23 01:50:03;;;;;;;5.45;4.05;;;4.00;99.90;;;;;;5015183;28;20238;-78
2021/01/23 01:52:30;;;;;;;5.82;3.85;;;4.10;99.90;;;;;;5014997;28;20310;-78
2021/01/23 01:54:56;;;;;;;6.03;4.20;;;4.10;99.90;;;;;;5015389;28;20741;-79
2021/01/23 01:57:23;;;;;;;5.95;4.07;;;4.10;99.90;;;;;;5013271;28;20235;-79
2021/01/23 01:59:50;;;;;;;5.00;3.30;;;4.10;99.90;;;;;;5014145;28;20230;-80
2021/01/23 02:02:33;;;;;;;4.75;3.03;;;4.30;99.90;;;;;;5012335;28;20200;-79
2021/01/23 02:05:05;;;;;;;3.88;2.05;;;4.30;99.90;;;;;;5004812;28;20201;-80
2021/01/23 02:07:45;;;;;;;4.43;2.85;;;4.50;99.90;;;;;;4993853;28;20248;-76
2021/01/23 02:10:21;;;;;;;3.58;2.00;;;4.60;99.90;;;;;;5003394;28;20846;-78
2021/01/23 02:13:04;;;;;;;4.22;2.55;;;4.50;99.90;;;;;;5014596;28;20253;-77
2021/01/23 02:15:36;;;;;;;3.47;2.03;;;4.50;99.90;;;;;;4996351;28;20830;-78
2021/01/23 02:18:07;;;;;;;3.58;2.00;;;4.70;99.90;;;;;;5007089;28;20917;-77
2021/01/23 02:20:58;;;;;;;4.20;2.05;;;4.50;99.90;;;;;;5012314;28;20235;-78
2021/01/23 02:23:28;;;;;;;3.85;2.25;;;4.70;99.90;;;;;;4995730;28;20223;-78
2021/01/23 02:26:04;;;;;;;3.40;1.67;;;4.90;99.90;;;;;;4999112;28;20204;-77
2021/01/23 02:29:06;;;;;;;2.55;1.40;;;4.90;99.90;;;;;;5010309;28;20277;-77
2021/01/23 02:31:37;;;;;;;3.80;2.28;;;4.70;99.90;;;;;;4991173;28;20577;-78
2021/01/23 02:34:06;;;;;;;3.88;2.15;;;4.70;99.90;;;;;;5007757;28;20196;-78
2021/01/23 02:36:35;;;;;;;3.55;2.08;;;4.70;99.90;;;;;;5011659;28;20224;-79
2021/01/23 02:39:02;;;;;;;3.67;2.85;;;4.60;99.90;;;;;;5009007;28;20607;-79
2021/01/23 02:41:30;;;;;;;3.00;1.80;;;4.60;99.90;;;;;;4993481;28;20208;-78
2021/01/23 02:43:57;;;;;;;2.85;1.70;;;4.40;99.90;;;;;;4997066;28;20570;-79
2021/01/23 02:46:23;;;;;;;3.30;1.73;;;4.60;99.90;;;;;;5013652;28;20211;-79
2021/01/23 02:48:51;;;;;;;3.50;2.00;;;4.40;99.90;;;;;;5012166;28;20319;-79
2021/01/23 02:51:27;;;;;;;2.95;1.58;;;4.60;99.90;;;;;;5013656;28;20220;-78
2021/01/23 02:53:59;;;;;;;3.05;1.60;;;4.60;99.90;;;;;;5018715;28;20207;-78
2021/01/23 02:56:26;;;;;;;2.72;1.33;;;4.90;99.90;;;;;;5013831;28;20204;-79
2021/01/23 02:58:56;;;;;;;2.80;1.30;;;4.90;99.90;;;;;;5011557;28;20219;-78
2021/01/23 03:01:23;;;;;;;2.78;1.38;;;4.70;99.90;;;;;;5012467;28;20529;-79
2021/01/23 03:03:54;;;;;;;2.90;1.40;;;4.70;99.90;;;;;;5006342;28;20614;-79
2021/01/23 03:06:22;;;;;;;2.58;1.30;;;4.80;99.90;;;;;;5009613;28;20239;-78
2021/01/23 03:08:49;;;;;;;2.55;1.25;;;4.70;99.90;;;;;;4994972;28;20314;-78
2021/01/23 03:11:15;;;;;;;2.50;1.42;;;4.90;99.90;;;;;;5002061;28;20220;-78
2021/01/23 03:13:42;;;;;;;2.75;1.30;;;4.90;99.90;;;;;;5013465;28;20206;-79
2021/01/23 03:16:09;;;;;;;3.10;1.83;;;4.80;99.90;;;;;;5013127;28;20721;-79
2021/01/23 03:18:35;;;;;;;2.75;1.25;;;4.80;99.90;;;;;;5007305;28;20285;-79
2021/01/23 03:21:03;;;;;;;2.60;1.30;;;4.90;99.90;;;;;;5000148;28;20211;-78
2021/01/23 03:23:30;;;;;;;2.80;1.67;;;4.90;99.90;;;;;;4997323;28;20250;-79
2021/01/23 03:25:56;;;;;;;2.90;1.50;;;5.00;99.90;;;;;;5003548;28;20259;-79
2021/01/23 03:28:23;;;;;;;3.22;1.30;;;5.00;99.90;;;;;;5006603;28;20247;-79
2021/01/23 03:30:49;;;;;;;3.40;1.65;;;4.90;99.90;;;;;;5012172;28;20220;-79
2021/01/23 03:33:16;;;;;;;2.60;1.30;;;5.00;99.90;;;;;;5012775;28;20602;-79
2021/01/23 03:35:44;;;;;;;4.35;1.90;;;4.90;99.90;;;;;;4998548;28;20583;-79
2021/01/23 03:38:11;;;;;;;3.40;1.70;;;5.10;99.90;;;;;;4996376;28;20220;-79
2021/01/23 03:40:38;;;;;;;3.13;1.83;;;4.90;99.90;;;;;;5012086;28;20211;-79
2021/01/23 03:43:04;;;;;;;2.50;1.40;;;5.00;99.90;;;;;;5009427;28;20201;-79
2021/01/23 03:45:31;;;;;;;3.10;1.65;;;5.10;99.90;;;;;;5007370;28;20674;-77
2021/01/23 03:47:57;;;;;;;2.70;1.50;;;5.00;99.90;;;;;;5013039;28;20247;-79
2021/01/23 03:50:24;;;;;;;3.15;1.70;;;5.10;99.90;;;;;;5022208;28;20223;-79
2021/01/23 03:52:51;;;;;;;2.85;1.75;;;5.00;99.90;;;;;;5017651;28;20254;-80
2021/01/23 03:55:18;;;;;;;3.53;1.90;;;5.10;99.90;;;;;;4994445;28;20219;-79
2021/01/23 03:57:45;;;;;;;2.65;1.50;;;5.10;99.90;;;;;;4993598;28;20328;-79
2021/01/23 04:00:12;;;;;;;3.63;1.80;;;5.10;99.90;;;;;;4997567;28;20208;-78
2021/01/23 04:02:39;;;;;;;2.92;1.60;;;5.10;99.90;;;;;;5009860;28;20223;-78
2021/01/23 04:05:07;;;;;;;3.33;1.70;;;5.00;99.90;;;;;;5011274;28;20353;-79
2021/01/23 04:07:33;;;;;;;3.35;1.77;;;5.10;99.90;;;;;;4996624;28;20232;-78
2021/01/23 04:10:00;;;;;;;4.03;2.08;;;5.00;99.90;;;;;;4992958;28;20233;-78
2021/01/23 04:12:27;;;;;;;3.38;2.08;;;5.10;99.90;;;;;;5007814;28;20200;-79
2021/01/23 04:14:54;;;;;;;6.40;2.25;;;5.00;99.90;;;;;;5014499;28;20675;-78
2021/01/23 04:17:20;;;;;;;3.72;1.70;;;4.90;99.90;;;;;;5006722;28;20227;-78
2021/01/23 04:19:47;;;;;;;4.88;2.00;;;5.10;99.90;;;;;;5004857;28;20204;-78
2021/01/23 04:22:13;;;;;;;3.42;1.95;;;5.00;99.90;;;;;;5014638;28;20200;-78
2021/01/23 04:24:40;;;;;;;5.18;1.90;;;5.00;99.90;;;;;;5015084;28;20288;-78
2021/01/23 04:27:07;;;;;;;4.20;1.75;;;5.20;99.90;;;;;;5008289;28;20238;-78
2021/01/23 04:29:34;;;;;;;2.95;1.63;;;4.90;99.90;;;;;;5014327;28;20289;-78
2021/01/23 04:32:01;;;;;;;3.38;1.77;;;5.00;99.90;;;;;;5005689;28;20242;-79
2021/01/23 04:34:27;;;;;;;3.35;1.95;;;4.90;99.90;;;;;;5013610;28;20214;-78
2021/01/23 04:36:54;;;;;;;4.63;1.85;;;5.00;99.90;;;;;;4997976;28;20204;-78
2021/01/23 04:39:21;;;;;;;3.13;1.52;;;5.10;99.90;;;;;;5000229;28;20278;-78
2021/01/23 04:41:47;;;;;;;4.13;1.70;;;5.00;99.90;;;;;;5014171;28;20548;-78
2021/01/23 04:44:14;;;;;;;3.00;1.67;;;5.00;99.90;;;;;;5007744;28;20786;-78
2021/01/23 04:46:41;;;;;;;3.60;1.80;;;5.20;99.90;;;;;;5014303;28;20235;-78
2021/01/23 04:49:08;;;;;;;3.00;1.58;;;5.20;99.90;;;;;;5007554;28;20270;-78
2021/01/23 04:51:34;;;;;;;3.03;1.50;;;5.00;99.90;;;;;;5007660;28;20224;-77
2021/01/23 04:54:01;;;;;;;4.38;1.95;;;5.00;99.90;;;;;;5007655;28;20200;-77
2021/01/23 04:56:28;;;;;;;4.22;1.75;;;5.30;99.90;;;;;;5011995;28;20227;-78
2021/01/23 04:58:54;;;;;;;4.93;1.80;;;5.30;99.90;;;;;;4998583;28;20220;-78
2021/01/23 05:01:21;;;;;;;3.67;2.08;;;5.20;99.90;;;;;;5014440;28;20199;-78
2021/01/23 05:03:57;;;;;;;3.28;1.80;;;5.20;99.90;;;;;;5012709;28;20212;-78
2021/01/23 05:06:23;;;;;;;3.25;1.80;;;5.20;99.90;;;;;;5017955;28;20207;-78
2021/01/23 05:08:50;;;;;;;3.92;2.00;;;5.20;99.90;;;;;;5009785;28;20224;-78
2021/01/23 05:11:17;;;;;;;3.13;1.65;;;5.20;99.90;;;;;;5002366;28;20292;-77
2021/01/23 05:14:11;;;;;;;3.50;1.90;;;5.10;99.90;;;;;;5000923;28;20204;-77
2021/01/23 05:16:38;;;;;;;6.13;1.95;;;5.20;99.90;;;;;;5005753;28;20679;-77
2021/01/23 05:19:06;;;;;;;3.72;2.08;;;5.10;99.90;;;;;;5013415;28;20710;-77
2021/01/23 05:21:33;;;;;;;3.60;2.22;;;5.00;99.90;;;;;;4998708;28;20204;-76
2021/01/23 05:24:05;;;;;;;3.35;1.80;;;5.20;99.90;;;;;;4999924;28;20204;-77
2021/01/23 05:26:32;;;;;;;3.80;2.00;;;5.20;99.90;;;;;;5009738;28;20270;-78
2021/01/23 05:29:13;;;;;;;3.92;1.95;;;5.20;99.90;;;;;;5013367;28;20235;-78
2021/01/23 05:31:41;;;;;;;8.18;1.90;;;5.10;99.90;;;;;;5013050;28;20230;-78
2021/01/23 05:34:26;;;;;;;4.32;2.35;;;5.20;99.90;;;;;;5013676;28;20219;-78
2021/01/23 05:36:54;;;;;;;3.63;1.67;;;5.10;99.90;;;;;;4998223;28;20231;-78
2021/01/23 05:39:21;;;;;;;3.25;1.80;;;4.90;99.90;;;;;;5011830;28;20266;-77
2021/01/23 05:42:04;;;;;;;2.92;1.70;;;4.90;99.90;;;;;;5001519;28;20275;-77
2021/01/23 05:44:31;;;;;;;3.55;1.85;;;5.00;99.90;;;;;;5004180;28;20646;-78
2021/01/23 05:46:57;;;;;;;2.95;1.65;;;4.90;99.90;;;;;;4995579;28;20213;-78
2021/01/23 05:49:24;;;;;;;3.35;1.88;;;5.10;99.90;;;;;;4994061;28;20212;-78
2021/01/23 05:51:52;;;;;;;3.80;1.77;;;5.00;99.90;;;;;;5002412;28;20322;-78
2021/01/23 05:54:18;;;;;;;3.28;1.75;;;5.10;99.90;;;;;;5015005;28;20212;-78
2021/01/23 05:56:47;;;;;;;4.53;1.85;;;5.10;99.90;;;;;;5010639;28;20211;-77
2021/01/23 05:59:13;;;;;;;3.40;1.85;;;4.90;99.90;;;;;;5014748;28;20265;-78
2021/01/23 06:01:41;;;;;;;7.10;2.30;;;5.10;99.90;;;;;;5001278;28;20200;-78
2021/01/23 06:04:14;;;;;;;4.80;1.98;;;5.10;99.90;;;;;;5014113;28;20215;-78
2021/01/23 06:06:44;;;;;;;3.47;2.00;;;5.10;99.90;;;;;;5016816;28;20235;-78
2021/01/23 06:09:34;;;;;;;3.53;1.85;;;5.00;99.90;;;;;;5011374;28;20255;-79
2021/01/23 06:12:01;;;;;;;4.88;2.15;;;4.90;99.90;;;;;;4994624;28;20243;-78
2021/01/23 06:14:40;;;;;;;3.25;1.77;;;4.90;99.90;;;;;;5004886;28;20208;-78
2021/01/23 06:17:07;;;;;;;7.80;2.10;;;4.80;99.90;;;;;;5010440;28;20230;-78
2021/01/23 06:19:41;;;;;;;3.72;1.90;;;4.90;99.90;;;;;;4993907;28;20208;-78
2021/01/23 06:22:09;;;;;;;3.90;1.90;;;5.00;99.90;;;;;;4997744;28;20208;-78
2021/01/23 06:24:55;;;;;;;4.90;2.50;;;5.00;99.90;;;;;;5006086;28;20208;-78
2021/01/23 06:27:46;;;;;;;3.50;2.00;;;5.10;99.90;;;;;;5009055;28;20231;-78
2021/01/23 06:30:31;;;;;;;3.83;2.17;;;5.10;99.90;;;;;;4991672;28;20706;-78
2021/01/23 06:32:58;;;;;;;3.60;2.00;;;5.10;99.90;;;;;;5009341;28;20211;-78
2021/01/23 06:35:24;;;;;;;3.40;2.30;;;5.00;99.90;;;;;;5001573;28;20204;-79
2021/01/23 06:38:11;;;;;;;4.30;2.05;;;5.00;99.90;;;;;;5015056;28;20224;-79
2021/01/23 06:40:38;;;;;;;3.28;1.65;;;4.90;99.90;;;;;;5015741;28;20230;-80
2021/01/23 06:43:06;;;;;;;4.20;2.38;;;5.10;99.90;;;;;;5017448;28;20873;-79
2021/01/23 06:45:34;;;;;;;4.85;2.15;;;4.70;99.90;;;;;;5013670;28;20223;-79
2021/01/23 06:48:01;;;;;;;3.90;2.03;;;4.90;99.90;;;;;;5013962;28;20251;-78
2021/01/23 06:50:37;;;;;;;6.07;2.58;;;5.00;99.90;;;;;;4999079;28;20243;-78
2021/01/23 06:53:05;;;;;;;3.30;2.03;;;4.80;99.90;;;;;;5009011;28;20262;-77
2021/01/23 06:55:49;;;;;;;3.25;2.08;;;4.90;99.90;;;;;;5011841;28;20215;-77
2021/01/23 06:58:20;;;;;;;3.67;1.85;;;4.90;99.90;;;;;;5011468;28;20238;-78
2021/01/23 07:00:49;;;;;;;3.80;2.20;;;4.90;99.90;;;;;;5009017;28;20208;-77
2021/01/23 07:03:17;;;;;;;4.13;2.42;;;5.00;99.90;;;;;;4991189;28;20209;-77
2021/01/23 07:05:53;;;;;;;4.00;2.70;;;4.80;99.90;;;;;;5003822;28;20196;-78
2021/01/23 07:08:24;;;;;;;3.55;2.30;;;4.70;99.90;;;;;;5004444;28;20363;-77
2021/01/23 07:11:09;;;;;;;4.00;2.22;;;4.70;99.90;;;;;;4996420;28;20535;-78
2021/01/23 07:13:36;;;;;;;3.70;2.10;;;4.90;99.90;;;;;;5012058;28;20216;-78
2021/01/23 07:16:04;;;;;;;4.03;2.20;;;4.70;99.90;;;;;;5011281;28;20204;-78
2021/01/23 07:18:30;;;;;;;3.70;2.55;;;4.70;99.90;;;;;;5010638;28;20318;-78
2021/01/23 07:20:57;;;;;;;4.25;2.58;;;4.80;99.90;;;;;;5008383;28;20212;-78
2021/01/23 07:23:24;;;;;;;5.10;2.85;;;4.60;99.90;;;;;;5011725;28;20253;-77
2021/01/23 07:25:51;;;;;;;5.80;2.60;;;4.70;99.90;;;;;;5015327;28;20200;-77
2021/01/23 07:28:19;;;;;;;4.07;2.45;;;4.90;99.90;;;;;;5015809;28;20242;-78
2021/01/23 07:30:46;;;;;;;5.60;2.47;;;5.00;99.90;;;;;;5011699;28;20236;-78
2021/01/23 07:33:12;;;;;;;4.70;2.85;;;5.00;99.90;;;;;;5012519;28;20211;-78
2021/01/23 07:35:40;;;;;;;5.22;2.75;;;4.80;99.90;;;;;;5014439;28;20208;-78
2021/01/23 07:38:07;;;;;;;6.38;2.70;;;5.10;99.90;;;;;;5011854;28;20227;-78
2021/01/23 07:40:36;;;;;;;4.60;2.60;;;4.90;99.90;;;;;;5012362;28;20197;-80
2021/01/23 07:43:05;;;;;;;4.65;2.55;;;4.80;99.90;;;;;;5011840;28;20535;-78
2021/01/23 07:45:33;;;;;;;4.50;2.42;;;4.90;99.90;;;;;;5012676;28;20204;-78
2021/01/23 07:48:01;;;;;;;5.55;2.67;;;4.90;99.90;;;;;;5016262;28;20258;-77
2021/01/23 07:50:37;;;;;;;5.13;2.75;;;4.70;99.90;;;;;;5014526;28;20232;-78
2021/01/23 07:53:14;;;;;;;3.67;2.30;;;4.80;99.90;;;;;;5014428;28;20218;-78
2021/01/23 07:55:40;;;;;;;5.07;2.90;;;4.90;99.90;;;;;;5015685;28;20204;-79
2021/01/23 07:58:07;;;;;;;6.72;3.70;;;4.80;99.90;;;;;;5016285;28;20224;-79
2021/01/23 08:00:35;;;;;;;6.35;2.67;;;4.70;99.90;;;;;;5017785;28;20200;-79
2021/01/23 08:03:02;;;;;;;6.72;4.88;;;4.80;99.90;;;;;;5018086;28;20204;-79
2021/01/23 08:05:42;;;;;;;6.82;2.85;;;4.80;99.90;;;;;;5019980;28;20200;-79
2021/01/23 08:08:08;;;;;;;7.57;2.58;;;5.00;99.90;;;;;;5015357;28;20490;-79
2021/01/23 08:10:36;;;;;;;4.72;2.67;;;4.80;99.90;;;;;;5021369;28;20228;-79
2021/01/23 08:13:05;;;;;;;5.97;3.33;;;5.00;99.90;;;;;;5019197;28;20208;-77
2021/01/23 08:15:33;;;;;;;7.43;3.78;;;5.10;99.90;;;;;;5016555;28;20574;-77
2021/01/23 08:18:02;;;;;;;7.47;3.90;;;5.00;99.90;;;;;;5018967;28;20228;-80
2021/01/23 08:20:33;;;;;;;9.13;4.55;;;5.10;99.90;;;;;;5016937;28;20196;-80
2021/01/23 08:23:06;;;;;;;8.52;3.78;;;5.10;99.90;;;;;;5019852;28;20210;-79
2021/01/23 08:25:36;;;;;;;6.10;3.25;;;5.30;99.90;;;;;;5014569;28;20540;-78
2021/01/23 08:28:04;;;;;;;4.82;3.30;;;5.00;99.90;;;;;;5000862;28;20224;-78
2021/01/23 08:30:32;;;;;;;9.75;3.50;;;5.10;99.90;;;;;;5016019;28;20327;-78
2021/01/23 08:33:01;;;;;;;10.13;3.58;;;5.10;99.90;;;;;;5015382;28;20223;-78
2021/01/23 08:35:28;;;;;;;5.80;3.30;;;5.20;99.90;;;;;;5016527;28;20247;-79
2021/01/23 08:37:55;;;;;;;5.82;3.80;;;5.30;99.90;;;;;;5014934;28;20224;-79
2021/01/23 08:40:23;;;;;;;5.97;3.90;;;5.30;99.90;;;;;;5018187;28;20199;-79
2021/01/23 08:42:51;;;;;;;5.97;3.78;;;5.30;99.90;;;;;;5018397;28;20303;-79
2021/01/23 08:45:21;;;;;;;5.32;3.60;;;5.10;99.90;;;;;;5018755;28;20212;-79
2021/01/23 08:47:48;;;;;;;6.32;4.03;;;5.20;99.90;;;;;;5018111;28;20239;-79
2021/01/23 08:50:16;;;;;;;6.45;3.33;;;5.30;99.90;;;;;;5017484;28;20370;-79
2021/01/23 08:52:43;;;;;;;6.13;3.55;;;5.40;99.90;;;;;;5022031;28;20203;-79
2021/01/23 08:55:11;;;;;;;5.75;3.60;;;5.40;99.90;;;;;;5018623;28;20207;-79
2021/01/23 08:57:38;;;;;;;5.78;3.70;;;5.50;99.90;;;;;;5017044;28;20344;-79
2021/01/23 09:00:07;;;;;;;6.25;3.63;;;5.30;99.90;;;;;;5016097;28;20647;-79
2021/01/23 09:02:34;;;;;;;7.85;4.28;;;5.50;99.90;;;;;;5017132;28;20222;-79
2021/01/23 09:05:01;;;;;;;6.30;4.00;;;5.30;99.90;;;;;;5016313;28;20222;-78
2021/01/23 09:07:28;;;;;;;7.78;3.88;;;5.40;99.90;;;;;;5016664;28;20231;-79
2021/01/23 09:09:55;;;;;;;7.82;4.28;;;5.60;99.90;;;;;;5017097;28;20196;-79
2021/01/23 09:12:21;;;;;;;8.30;4.55;;;5.40;99.90;;;;;;5017870;28;20566;-79
2021/01/23 09:14:48;;;;;;;7.35;3.80;;;5.60;99.90;;;;;;5022892;28;20223;-77
2021/01/23 09:17:15;;;;;;;5.53;3.58;;;5.50;99.90;;;;;;5021819;28;20722;-78
2021/01/23 09:19:41;;;;;;;6.95;3.83;;;5.50;99.90;;;;;;5019451;28;20547;-79
2021/01/23 09:22:10;;;;;;;5.57;3.35;;;5.50;99.90;;;;;;5022645;28;20355;-78
2021/01/23 09:24:37;;;;;;;6.40;3.35;;;5.70;99.90;;;;;;5018594;28;20215;-79
2021/01/23 09:27:04;;;;;;;6.60;3.80;;;5.60;99.90;;;;;;5013002;28;20196;-78
2021/01/23 09:29:31;;;;;;;6.38;3.75;;;5.70;99.90;;;;;;5014110;28;20208;-77
2021/01/23 09:32:00;;;;;;;6.57;3.50;;;5.90;99.90;;;;;;5013857;28;20227;-77
2021/01/23 09:34:27;;;;;;;7.78;3.50;;;5.80;99.90;;;;;;5012217;28;20208;-77
2021/01/23 09:36:53;;;;;;;7.10;3.40;;;5.80;99.90;;;;;;5012598;28;20279;-76
2021/01/23 09:39:20;;;;;;;5.43;3.00;;;5.80;99.90;;;;;;5012623;28;20235;-76
2021/01/23 09:41:48;;;;;;;4.93;3.22;;;5.90;99.90;;;;;;5010958;28;20227;-75
2021/01/23 09:44:14;;;;;;;5.03;3.20;;;6.10;99.90;;;;;;5012074;28;20211;-76
2021/01/23 09:46:41;;;;;;;5.38;3.03;;;6.10;99.90;;;;;;5017128;28;20220;-79
2021/01/23 09:49:07;;;;;;;5.53;3.40;;;6.20;99.90;;;;;;5017254;28;20326;-79
2021/01/23 09:51:34;;;;;;;6.07;3.00;;;6.20;99.90;;;;;;5018415;28;20228;-78
2021/01/23 09:54:01;;;;;;;5.28;3.10;;;6.20;99.90;;;;;;5018125;28;20204;-79
2021/01/23 09:56:27;;;;;;;5.90;3.15;;;6.40;99.90;;;;;;5009607;28;20204;-83
2021/01/23 09:58:55;;;;;;;4.82;3.10;;;6.40;99.90;;;;;;5010212;28;20244;-80
2021/01/23 10:01:21;;;;;;;5.60;2.85;;;6.60;99.90;;;;;;5014353;28;20208;-80
2021/01/23 10:03:48;;;;;;;4.70;2.95;;;6.40;99.90;;;;;;5009147;28;20215;-79
2021/01/23 10:06:14;;;;;;;4.07;3.00;;;6.40;99.90;;;;;;5009428;28;20211;-81
2021/01/23 10:08:41;;;;;;;5.45;2.97;;;6.60;99.90;;;;;;5013632;28;20250;-80
2021/01/23 10:11:08;;;;;;;5.50;3.88;;;6.40;99.90;;;;;;5014070;28;20604;-75
2021/01/23 10:13:34;;;;;;;8.85;3.03;;;6.60;99.90;;;;;;4994625;28;20212;-76
2021/01/23 10:16:04;;;;;;;5.75;3.25;;;6.60;99.90;;;;;;5010804;28;20204;-80
2021/01/23 10:18:35;;;;;;;4.47;2.75;;;6.50;99.90;;;;;;5012078;28;20227;-80
2021/01/23 10:21:02;;;;;;;5.30;3.25;;;6.50;99.90;;;;;;5009511;28;20308;-80
2021/01/23 10:23:29;;;;;;;9.07;2.90;;;6.40;99.90;;;;;;4993744;28;20208;-78
2021/01/23 10:25:55;;;;;;;5.90;2.90;;;6.50;99.90;;;;;;5001391;28;20218;-79
2021/01/23 10:28:22;;;;;;;5.45;2.90;;;6.40;99.90;;;;;;5016005;28;20721;-79
2021/01/23 10:30:49;;;;;;;6.25;3.03;;;6.30;99.90;;;;;;5016317;28;20643;-79
2021/01/23 10:33:16;;;;;;;5.15;3.10;;;6.30;99.90;;;;;;5013425;28;20196;-79
2021/01/23 10:35:43;;;;;;;4.82;3.33;;;6.40;99.90;;;;;;4997338;28;20580;-80
2021/01/23 10:38:10;;;;;;;5.65;2.78;;;6.40;99.90;;;;;;4997182;28;20318;-79
2021/01/23 10:40:36;;;;;;;4.60;2.80;;;6.50;99.90;;;;;;4998587;28;20255;-79
2021/01/23 10:43:03;;;;;;;4.35;2.95;;;6.50;99.90;;;;;;5000122;28;20205;-79
2021/01/23 10:45:30;;;;;;;5.57;3.00;;;6.50;99.90;;;;;;5017063;28;20230;-79
2021/01/23 10:47:56;;;;;;;5.07;2.78;;;6.70;99.90;;;;;;5022724;28;20239;-79
2021/01/23 10:50:24;;;;;;;5.50;2.83;;;6.70;99.90;;;;;;5077269;22;20225;-90
2021/01/23 10:52:50;;;;;;;5.13;3.30;;;6.70;99.90;;;;;;5076796;28;20216;-87
2021/01/23 10:55:17;;;;;;;5.85;2.97;;;6.40;99.90;;;;;;5076628;28;20347;-85
2021/01/23 10:57:44;;;;;;;6.32;3.10;;;6.80;99.90;;;;;;5072173;28;20351;-86
2021/01/23 11:00:12;;;;;;;7.95;3.13;;;6.70;99.90;;;;;;5046590;28;20250;-85
2021/01/23 11:02:39;;;;;;;5.10;3.20;;;6.70;99.90;;;;;;5045373;28;20203;-84
2021/01/23 11:05:07;;;;;;;6.13;3.28;;;6.60;99.90;;;;;;5059943;28;20211;-86
2021/01/23 11:07:35;;;;;;;3.83;2.30;;;6.80;99.90;;;;;;5056648;28;20267;-85
2021/01/23 11:10:01;;;;;;;4.00;2.42;;;6.80;99.90;;;;;;5057710;28;20230;-84
2021/01/23 11:12:28;;;;;;;4.25;1.92;;;6.80;99.90;;;;;;5059936;28;20198;-85
2021/01/23 11:14:55;;;;;;;6.53;3.13;;;6.70;99.90;;;;;;5059798;28;20202;-86
2021/01/23 11:17:21;;;;;;;8.00;2.60;;;6.90;99.90;;;;;;5052997;28;20223;-83
2021/01/23 11:19:48;;;;;;;6.25;3.60;;;6.80;99.90;;;;;;5052618;28;20229;-83
2021/01/23 11:22:14;;;;;;;4.60;2.45;;;6.90;99.90;;;;;;5057646;28;20624;-80
2021/01/23 11:24:42;;;;;;;5.00;2.58;;;6.90;99.90;;;;;;5054943;28;20198;-82
2021/01/23 11:27:08;;;;;;;3.70;2.35;;;7.00;99.90;;;;;;5060860;28;20211;-82
2021/01/23 11:29:35;;;;;;;5.28;3.40;;;7.00;99.90;;;;;;5061027;28;20255;-82
2021/01/23 11:32:02;;;;;;;4.30;2.58;;;6.90;99.90;;;;;;5061013;28;20234;-82
2021/01/23 11:34:28;;;;;;;4.55;2.58;;;6.80;99.90;;;;;;5061609;28;20213;-82
2021/01/23 11:36:55;;;;;;;5.45;2.80;;;6.90;99.90;;;;;;5059096;28;20727;-81
2021/01/23 11:39:21;;;;;;;4.95;2.58;;;6.90;99.90;;;;;;5057218;28;20223;-82
2021/01/23 11:41:49;;;;;;;4.80;2.78;;;6.80;99.90;;;;;;5058414;28;20249;-84
2021/01/23 11:44:16;;;;;;;4.50;2.40;;;6.90;99.90;;;;;;5059835;28;20203;-82
2021/01/23 11:46:42;;;;;;;6.35;2.58;;;7.10;99.90;;;;;;5059321;28;20267;-84
2021/01/23 11:49:09;;;;;;;3.97;2.15;;;6.90;99.90;;;;;;5057919;28;20260;-84
2021/01/23 11:51:36;;;;;;;5.43;2.75;;;7.00;99.90;;;;;;5060181;28;20210;-84
2021/01/23 11:54:04;;;;;;;3.88;2.03;;;7.10;99.90;;;;;;5065224;28;20295;-85
2021/01/23 11:56:30;;;;;;;4.10;2.40;;;6.90;99.90;;;;;;5057845;28;20260;-83
2021/01/23 11:58:58;;;;;;;4.55;2.60;;;7.10;99.90;;;;;;5058382;28;20202;-85
2021/01/23 12:01:24;;;;;;;5.38;2.97;;;7.10;99.90;;;;;;5057849;28;20273;-83
2021/01/23 12:03:51;;;;;;;5.28;2.75;;;6.90;99.90;;;;;;5058176;28;20222;-82
2021/01/23 12:06:18;;;;;;;7.88;3.30;;;7.10;99.90;;;;;;5055591;28;20679;-83
2021/01/23 12:08:44;;;;;;;6.20;2.35;;;7.10;99.90;;;;;;5057297;28;20673;-86
2021/01/23 12:11:11;;;;;;;5.75;2.40;;;7.30;99.90;;;;;;5055911;28;20681;-84
2021/01/23 12:13:38;;;;;;;10.30;6.85;;;7.10;99.90;;;;;;5056455;28;20222;-85
2021/01/23 12:16:06;;;;;;;3.88;2.00;;;7.40;99.90;;;;;;5057069;28;20202;-80
2021/01/23 12:18:32;;;;;;;3.70;2.15;;;7.20;99.90;;;;;;5053615;28;20206;-85
2021/01/23 12:20:59;;;;;;;10.20;3.00;;;7.40;99.90;;;;;;5060841;28;20756;-83
2021/01/23 12:23:26;;;;;;;7.35;2.42;;;7.30;99.90;;;;;;5058614;28;20210;-85
2021/01/23 12:25:55;;;;;;;3.80;2.20;;;7.40;99.90;;;;;;5059507;28;20198;-87
2021/01/23 12:28:22;;;;;;;5.38;2.50;;;7.50;99.90;;;;;;5058538;28;20212;-85
2021/01/23 12:30:48;;;;;;;3.80;2.47;;;7.40;99.90;;;;;;5057478;28;20237;-84
2021/01/23 12:33:16;;;;;;;5.30;2.10;;;7.40;99.90;;;;;;5055885;28;20202;-86
2021/01/23 12:35:43;;;;;;;3.67;1.73;;;7.50;99.90;;;;;;5053266;28;20707;-84
2021/01/23 12:38:09;;;;;;;7.30;2.08;;;7.60;99.90;;;;;;5066096;28;20210;-83
2021/01/23 12:40:36;;;;;;;5.22;2.03;;;7.60;99.90;;;;;;5069357;28;20222;-85
2021/01/23 12:43:02;;;;;;;4.63;2.53;;;7.70;99.90;;;;;;5073814;28;20175;-82
2021/01/23 12:45:29;;;;;;;3.87;1.90;;;7.80;99.90;;;;;;5073305;28;20198;-84
2021/01/23 12:47:56;;;;;;;3.53;2.05;;;7.80;99.90;;;;;;5058432;28;20461;-85
2021/01/23 12:50:23;;;;;;;4.50;1.65;;;7.60;99.90;;;;;;5057749;28;20783;-84
2021/01/23 12:52:50;;;;;;;3.70;1.85;;;7.60;99.90;;;;;;5058591;28;20234;-83
2021/01/23 12:55:16;;;;;;;9.73;2.00;;;7.30;99.90;;;;;;5057291;28;20206;-87
2021/01/23 12:57:43;;;;;;;3.97;1.98;;;7.30;99.90;;;;;;5064280;28;20183;-85
2021/01/23 13:00:11;;;;;;;4.53;1.97;;;7.50;99.90;;;;;;5074605;28;20238;-85
2021/01/23 13:02:38;;;;;;;5.25;2.20;;;7.50;99.90;;;;;;5068993;28;20437;-85
2021/01/23 13:05:06;;;;;;;3.85;1.85;;;7.40;99.90;;;;;;5072207;28;20246;-82